Time;durP1;ratioP1;P1;durP2;ratioP2;P2;SDS_P1;SDS_P2;PMS_P1;PMS_P2;Temp;Humidity;BMP_temperature;BMP_pressure;BME280_temperature;BME280_humidity;BME280_pressure;Samples;Min_cycle;Max_cycle;Signal;HPM_P1;HPM_P2
2022/09/21 00:01:28;;;;;;;;;19.00;19.00;;;;;;;;5094587;27;45634;-76
2022/09/21 00:03:54;;;;;;;;;15.75;15.75;;;;;;;;5081143;28;45393;-75
2022/09/21 00:06:20;;;;;;;;;15.25;15.00;;;;;;;;5084989;28;45298;-75
2022/09/21 00:08:46;;;;;;;;;14.50;14.50;;;;;;;;5085998;28;45810;-75
2022/09/21 00:11:16;;;;;;;;;14.00;14.00;;;;;;;;5086325;28;45347;-75
2022/09/21 00:13:43;;;;;;;;;20.50;20.50;;;;;;;;5078098;28;46517;-76
2022/09/21 00:16:08;;;;;;;;;13.00;13.00;;;;;;;;5077241;28;45330;-75
2022/09/21 00:18:34;;;;;;;;;14.25;14.25;;;;;;;;5077258;28;45426;-76
2022/09/21 00:21:00;;;;;;;;;12.50;12.50;;;;;;;;5076562;28;45578;-77
2022/09/21 00:23:25;;;;;;;;;15.25;15.25;;;;;;;;5076272;28;45462;-75
2022/09/21 00:25:50;;;;;;;;;13.00;13.00;;;;;;;;5076987;28;45317;-75
2022/09/21 00:28:15;;;;;;;;;14.00;14.00;;;;;;;;5076712;28;45199;-74
2022/09/21 00:30:41;;;;;;;;;15.00;15.00;;;;;;;;5077041;28;45244;-75
2022/09/21 00:33:06;;;;;;;;;8.75;8.25;;;;;;;;5076466;28;45272;-75
2022/09/21 00:35:32;;;;;;;;;11.25;11.25;;;;;;;;5076063;28;45263;-74
2022/09/21 00:38:01;;;;;;;;;18.75;18.75;;;;;;;;5076367;28;45229;-75
2022/09/21 00:40:26;;;;;;;;;11.25;11.25;;;;;;;;5076280;28;45252;-74
2022/09/21 00:42:51;;;;;;;;;6.00;6.00;;;;;;;;5056667;28;48603;-75
2022/09/21 00:45:20;;;;;;;;;9.50;9.50;;;;;;;;5091416;27;45326;-75
2022/09/21 00:47:47;;;;;;;;;13.00;13.00;;;;;;;;5075957;28;45264;-75
2022/09/21 00:50:14;;;;;;;;;14.00;14.00;;;;;;;;5076086;28;45244;-76
2022/09/21 00:52:42;;;;;;;;;13.25;13.25;;;;;;;;5075610;28;45439;-74
2022/09/21 00:55:10;;;;;;;;;15.75;15.75;;;;;;;;5075799;28;45433;-75
2022/09/21 00:57:36;;;;;;;;;14.50;14.50;;;;;;;;5076034;28;45280;-75
2022/09/21 01:00:04;;;;;;;;;12.50;12.50;;;;;;;;5075646;28;45322;-76
2022/09/21 01:02:29;;;;;;;;;14.25;14.25;;;;;;;;5075272;27;47346;-75
2022/09/21 01:04:55;;;;;;;;;12.75;11.00;;;;;;;;5075295;28;45281;-75
2022/09/21 01:07:27;;;;;;;;;12.00;12.00;;;;;;;;5075810;28;45361;-76
2022/09/21 01:09:53;;;;;;;;;11.25;11.25;;;;;;;;5076250;28;45388;-76
2022/09/21 01:12:37;;;;;;;;;13.50;12.75;;;;;;;;5075457;28;46842;-75
2022/09/21 01:15:21;;;;;;;;;11.50;10.50;;;;;;;;5075679;28;45320;-76
2022/09/21 01:17:52;;;;;;;;;11.00;11.00;;;;;;;;5075415;28;45430;-76
2022/09/21 01:20:35;;;;;;;;;10.25;10.25;;;;;;;;5075651;28;45340;-76
2022/09/21 01:23:03;;;;;;;;;11.75;11.75;;;;;;;;5075314;28;46727;-75
2022/09/21 01:25:47;;;;;;;;;10.25;10.25;;;;;;;;5090635;27;46370;-74
2022/09/21 01:28:29;;;;;;;;;10.50;10.50;;;;;;;;5075366;28;45352;-75
2022/09/21 01:30:55;;;;;;;;;12.00;12.00;;;;;;;;5075518;28;45603;-75
2022/09/21 01:33:26;;;;;;;;;9.00;9.00;;;;;;;;5075629;28;46125;-74
2022/09/21 01:35:57;;;;;;;;;12.00;12.00;;;;;;;;5075395;28;45275;-75
2022/09/21 01:38:27;;;;;;;;;9.00;9.00;;;;;;;;5075504;28;45499;-75
2022/09/21 01:40:55;;;;;;;;;11.50;11.50;;;;;;;;5075588;28;45346;-76
2022/09/21 01:43:24;;;;;;;;;9.50;9.50;;;;;;;;5075174;28;46278;-75
2022/09/21 01:45:50;;;;;;;;;11.50;11.50;;;;;;;;5075016;28;45244;-76
2022/09/21 01:48:17;;;;;;;;;9.50;9.50;;;;;;;;5075182;28;45363;-74
2022/09/21 01:50:45;;;;;;;;;10.75;10.75;;;;;;;;5075228;28;45601;-76
2022/09/21 01:53:27;;;;;;;;;10.00;10.00;;;;;;;;5074759;28;45553;-75
2022/09/21 01:55:55;;;;;;;;;9.50;9.50;;;;;;;;5078103;27;45312;-74
2022/09/21 01:58:32;;;;;;;;;7.00;7.00;;;;;;;;5060525;28;45467;-77
2022/09/21 02:00:58;;;;;;;;;10.75;10.75;;;;;;;;5079521;28;45325;-75
2022/09/21 02:03:43;;;;;;;;;12.00;12.00;;;;;;;;5062556;28;45578;-74
2022/09/21 02:06:10;;;;;;;;;11.25;11.25;;;;;;;;5056826;28;45527;-75
2022/09/21 02:08:35;;;;;;;;;10.00;10.00;;;;;;;;5056091;28;45384;-75
2022/09/21 02:11:01;;;;;;;;;10.75;10.75;;;;;;;;5057773;28;45321;-75
2022/09/21 02:13:30;;;;;;;;;12.00;12.00;;;;;;;;5056747;28;45381;-77
2022/09/21 02:16:07;;;;;;;;;11.25;11.25;;;;;;;;5058071;28;45377;-75
2022/09/21 02:18:56;;;;;;;;;11.00;11.00;;;;;;;;5057883;28;45454;-75
2022/09/21 02:21:29;;;;;;;;;10.75;10.75;;;;;;;;5056640;28;45263;-77
2022/09/21 02:24:15;;;;;;;;;11.00;11.00;;;;;;;;5057799;27;47542;-76
2022/09/21 02:26:48;;;;;;;;;12.50;12.50;;;;;;;;5057157;28;45339;-75
2022/09/21 02:29:32;;;;;;;;;11.50;11.50;;;;;;;;5056752;28;45884;-76
2022/09/21 02:32:04;;;;;;;;;11.50;11.50;;;;;;;;5056637;28;45281;-74
2022/09/21 02:34:32;;;;;;;;;16.50;16.50;;;;;;;;5057710;28;46554;-76
2022/09/21 02:37:01;;;;;;;;;13.00;13.00;;;;;;;;5057965;28;45331;-74
2022/09/21 02:39:34;;;;;;;;;10.75;10.75;;;;;;;;5057892;28;45305;-76
2022/09/21 02:42:08;;;;;;;;;11.00;11.00;;;;;;;;5056308;28;45502;-75
2022/09/21 02:44:37;;;;;;;;;11.00;11.00;;;;;;;;5057472;28;46221;-75
2022/09/21 02:47:02;;;;;;;;;13.00;13.00;;;;;;;;5057112;28;45325;-75
2022/09/21 02:49:32;;;;;;;;;13.00;12.25;;;;;;;;5057751;28;45356;-74
2022/09/21 02:52:00;;;;;;;;;9.00;9.00;;;;;;;;5058212;28;45422;-74
2022/09/21 02:54:28;;;;;;;;;12.50;12.50;;;;;;;;5057462;28;45786;-74
2022/09/21 02:56:54;;;;;;;;;10.75;10.75;;;;;;;;5055838;28;45298;-75
2022/09/21 02:59:22;;;;;;;;;13.00;13.00;;;;;;;;5055732;28;45450;-75
2022/09/21 03:01:47;;;;;;;;;13.75;13.75;;;;;;;;5057217;28;45330;-76
2022/09/21 03:04:13;;;;;;;;;13.25;13.25;;;;;;;;5056876;28;46365;-76
2022/09/21 03:06:38;;;;;;;;;12.00;12.00;;;;;;;;5055984;28;45378;-75
2022/09/21 03:09:03;;;;;;;;;12.00;12.00;;;;;;;;5055652;28;45276;-74
2022/09/21 03:11:28;;;;;;;;;14.00;14.00;;;;;;;;5057531;28;45366;-75
2022/09/21 03:13:53;;;;;;;;;11.25;11.25;;;;;;;;5056885;28;46197;-75
2022/09/21 03:16:20;;;;;;;;;11.75;11.75;;;;;;;;5057162;28;45505;-75
2022/09/21 03:18:45;;;;;;;;;11.75;11.75;;;;;;;;5056902;28;45266;-73
2022/09/21 03:21:11;;;;;;;;;13.25;13.00;;;;;;;;5055626;28;45224;-75
2022/09/21 03:23:36;;;;;;;;;12.00;12.00;;;;;;;;5056743;28;45826;-73
2022/09/21 03:26:01;;;;;;;;;14.00;14.00;;;;;;;;5055536;28;45797;-75
2022/09/21 03:28:26;;;;;;;;;15.25;15.25;;;;;;;;5057286;27;45538;-74
2022/09/21 03:30:52;;;;;;;;;17.75;17.25;;;;;;;;5057615;28;45270;-74
2022/09/21 03:33:18;;;;;;;;;17.75;16.75;;;;;;;;5056507;28;46559;-75
2022/09/21 03:35:43;;;;;;;;;15.75;15.25;;;;;;;;5055267;28;45568;-74
2022/09/21 03:38:09;;;;;;;;;18.00;18.00;;;;;;;;5056444;28;45230;-74
2022/09/21 03:40:34;;;;;;;;;14.25;14.25;;;;;;;;5056829;28;45602;-74
2022/09/21 03:42:59;;;;;;;;;17.50;17.50;;;;;;;;5056753;28;45381;-76
2022/09/21 03:45:27;;;;;;;;;18.75;18.75;;;;;;;;5056625;28;45303;-75
2022/09/21 03:47:56;;;;;;;;;22.75;21.00;;;;;;;;5057436;28;45263;-75
2022/09/21 03:50:22;;;;;;;;;26.75;26.75;;;;;;;;5057836;28;45544;-73
2022/09/21 03:52:47;;;;;;;;;21.00;20.50;;;;;;;;5056935;28;45217;-74
2022/09/21 03:55:13;;;;;;;;;23.25;23.25;;;;;;;;5056807;28;45827;-74
2022/09/21 03:57:38;;;;;;;;;17.25;17.25;;;;;;;;5056598;28;45215;-74
2022/09/21 04:00:05;;;;;;;;;17.00;17.00;;;;;;;;5056601;27;45302;-74
2022/09/21 04:02:30;;;;;;;;;13.75;13.75;;;;;;;;5056297;28;45363;-76
2022/09/21 04:04:56;;;;;;;;;13.25;13.25;;;;;;;;5056210;28;45364;-75
2022/09/21 04:07:21;;;;;;;;;15.50;15.50;;;;;;;;5054874;28;45394;-76
2022/09/21 04:09:46;;;;;;;;;15.50;15.50;;;;;;;;5056836;28;45356;-74
2022/09/21 04:12:11;;;;;;;;;14.50;14.50;;;;;;;;5056011;28;45516;-76
2022/09/21 04:14:37;;;;;;;;;18.25;18.25;;;;;;;;5055951;28;45313;-75
2022/09/21 04:17:02;;;;;;;;;18.00;17.25;;;;;;;;5056686;28;45464;-76
2022/09/21 04:19:27;;;;;;;;;12.25;12.25;;;;;;;;5056118;28;45295;-76
2022/09/21 04:21:53;;;;;;;;;14.75;14.75;;;;;;;;5056011;28;46295;-75
2022/09/21 04:24:19;;;;;;;;;14.00;14.00;;;;;;;;5054279;28;45468;-75
2022/09/21 04:26:45;;;;;;;;;14.50;14.50;;;;;;;;5055653;28;45476;-75
2022/09/21 04:29:10;;;;;;;;;13.25;13.25;;;;;;;;5056222;28;45618;-75
2022/09/21 04:31:35;;;;;;;;;11.25;11.25;;;;;;;;5055157;28;46243;-75
2022/09/21 04:34:01;;;;;;;;;12.50;12.50;;;;;;;;5055609;28;45306;-76
2022/09/21 04:36:27;;;;;;;;;12.25;12.25;;;;;;;;5055489;28;45180;-75
2022/09/21 04:38:52;;;;;;;;;12.00;12.00;;;;;;;;5053954;28;45416;-74
2022/09/21 04:41:18;;;;;;;;;13.50;13.50;;;;;;;;5055185;28;46468;-75
2022/09/21 04:43:44;;;;;;;;;12.50;12.50;;;;;;;;5054917;28;45251;-76
2022/09/21 04:46:11;;;;;;;;;10.50;10.50;;;;;;;;5055043;28;45212;-76
2022/09/21 04:48:37;;;;;;;;;11.25;11.25;;;;;;;;5055337;28;45441;-76
2022/09/21 04:51:02;;;;;;;;;16.25;14.50;;;;;;;;5055116;28;46357;-75
2022/09/21 04:53:27;;;;;;;;;12.00;12.00;;;;;;;;5055082;28;45432;-74
2022/09/21 04:55:54;;;;;;;;;13.25;13.25;;;;;;;;5055552;28;45332;-76
2022/09/21 04:58:19;;;;;;;;;13.00;13.00;;;;;;;;5055862;28;45323;-75
2022/09/21 05:00:48;;;;;;;;;14.00;14.00;;;;;;;;5055651;28;46372;-76
2022/09/21 05:03:13;;;;;;;;;13.75;13.75;;;;;;;;5055359;28;45398;-76
2022/09/21 05:05:38;;;;;;;;;14.25;14.25;;;;;;;;5054113;28;45289;-75
2022/09/21 05:08:03;;;;;;;;;13.50;13.50;;;;;;;;5054760;28;45438;-76
2022/09/21 05:10:29;;;;;;;;;13.50;13.50;;;;;;;;5055245;28;46623;-76
2022/09/21 05:12:54;;;;;;;;;15.75;15.75;;;;;;;;5053872;28;45650;-75
2022/09/21 05:15:21;;;;;;;;;10.50;10.25;;;;;;;;5055272;28;45443;-76
2022/09/21 05:17:46;;;;;;;;;15.00;15.00;;;;;;;;5055286;28;45529;-76
2022/09/21 05:20:11;;;;;;;;;16.25;16.25;;;;;;;;5054963;28;46644;-76
2022/09/21 05:22:36;;;;;;;;;16.75;15.50;;;;;;;;5055577;28;45405;-75
2022/09/21 05:25:02;;;;;;;;;16.25;16.25;;;;;;;;5055149;28;45312;-75
2022/09/21 05:27:27;;;;;;;;;18.25;17.75;;;;;;;;5054947;28;45652;-75
2022/09/21 05:29:52;;;;;;;;;17.75;17.75;;;;;;;;5053747;28;45585;-75
2022/09/21 05:32:26;;;;;;;;;17.00;17.00;;;;;;;;5054959;28;45408;-77
2022/09/21 05:35:18;;;;;;;;;16.00;16.00;;;;;;;;5054980;28;45407;-76
2022/09/21 05:37:56;;;;;;;;;16.50;16.50;;;;;;;;5052339;28;45422;-74
2022/09/21 05:40:21;;;;;;;;;14.75;14.75;;;;;;;;5054549;28;47022;-75
2022/09/21 05:42:46;;;;;;;;;16.00;16.00;;;;;;;;5054368;27;45430;-76
2022/09/21 05:45:15;;;;;;;;;15.00;14.50;;;;;;;;5053608;28;45307;-75
2022/09/21 05:47:59;;;;;;;;;15.75;15.00;;;;;;;;5055406;28;45474;-75
2022/09/21 05:50:35;;;;;;;;;17.00;17.00;;;;;;;;5054550;28;46240;-75
2022/09/21 05:53:19;;;;;;;;;16.00;15.00;;;;;;;;5054831;28;45264;-75
2022/09/21 05:55:47;;;;;;;;;17.25;17.25;;;;;;;;5055078;28;45363;-73
2022/09/21 05:58:20;;;;;;;;;28.75;25.75;;;;;;;;5055497;28;45453;-77
2022/09/21 06:00:54;;;;;;;;;17.25;17.25;;;;;;;;5054155;28;47250;-76
2022/09/21 06:03:30;;;;;;;;;19.75;18.75;;;;;;;;5056070;28;45226;-75
2022/09/21 06:05:55;;;;;;;;;18.75;17.50;;;;;;;;5053846;28;46065;-77
2022/09/21 06:08:21;;;;;;;;;16.25;15.75;;;;;;;;5055366;28;45472;-76
2022/09/21 06:10:47;;;;;;;;;21.50;20.50;;;;;;;;5055160;28;45593;-78
2022/09/21 06:13:12;;;;;;;;;13.50;13.50;;;;;;;;5053186;28;45332;-77
2022/09/21 06:15:37;;;;;;;;;16.25;16.25;;;;;;;;5053948;28;45439;-76
2022/09/21 06:18:06;;;;;;;;;19.75;19.75;;;;;;;;5054576;28;45544;-77
2022/09/21 06:20:32;;;;;;;;;19.00;19.00;;;;;;;;5054672;28;45560;-77
2022/09/21 06:23:04;;;;;;;;;17.25;17.25;;;;;;;;5054764;28;45384;-77
2022/09/21 06:25:29;;;;;;;;;18.50;18.50;;;;;;;;5054597;28;45419;-78
2022/09/21 06:27:54;;;;;;;;;20.25;19.25;;;;;;;;5055179;28;45538;-80
2022/09/21 06:30:20;;;;;;;;;20.25;20.00;;;;;;;;5054727;28;45707;-78
2022/09/21 06:32:45;;;;;;;;;19.00;19.00;;;;;;;;5036489;28;45770;-76
2022/09/21 06:35:10;;;;;;;;;20.50;19.75;;;;;;;;5055159;28;45390;-77
2022/09/21 06:37:38;;;;;;;;;15.00;15.00;;;;;;;;5071485;28;45320;-75
2022/09/21 06:40:04;;;;;;;;;21.00;19.50;;;;;;;;5073329;28;47276;-81
2022/09/21 06:42:32;;;;;;;;;18.25;18.25;;;;;;;;5072046;28;45478;-75
2022/09/21 06:44:57;;;;;;;;;20.25;20.25;;;;;;;;5078330;27;45247;-78
2022/09/21 06:47:23;;;;;;;;;21.75;21.50;;;;;;;;5077152;28;45453;-75
2022/09/21 06:49:48;;;;;;;;;22.00;22.00;;;;;;;;5078510;28;45434;-75
2022/09/21 06:52:13;;;;;;;;;17.75;17.75;;;;;;;;5078120;28;45395;-73
2022/09/21 06:54:39;;;;;;;;;13.25;13.25;;;;;;;;5078378;27;45281;-74
2022/09/21 06:57:05;;;;;;;;;22.75;22.75;;;;;;;;5097443;27;45284;-77
2022/09/21 06:59:30;;;;;;;;;21.25;20.75;;;;;;;;5088920;27;47414;-82
2022/09/21 07:01:57;;;;;;;;;22.25;22.25;;;;;;;;5085442;27;45630;-76
2022/09/21 07:04:23;;;;;;;;;20.75;20.75;;;;;;;;5086593;27;45367;-78
2022/09/21 07:06:48;;;;;;;;;21.50;21.25;;;;;;;;5080587;27;45426;-76
2022/09/21 07:09:14;;;;;;;;;19.75;19.75;;;;;;;;5078313;27;47374;-74
2022/09/21 07:11:40;;;;;;;;;25.25;25.25;;;;;;;;5100065;27;45400;-75
2022/09/21 07:14:05;;;;;;;;;21.50;21.50;;;;;;;;5105805;27;45236;-76
2022/09/21 07:16:32;;;;;;;;;26.00;25.75;;;;;;;;5084708;27;45585;-76
2022/09/21 07:18:57;;;;;;;;;25.25;25.25;;;;;;;;5081112;27;46663;-73
2022/09/21 07:21:22;;;;;;;;;21.00;21.00;;;;;;;;5099418;27;45372;-76
2022/09/21 07:23:47;;;;;;;;;24.25;24.25;;;;;;;;5085747;27;45307;-74
2022/09/21 07:26:13;;;;;;;;;27.00;27.00;;;;;;;;5081692;28;45589;-75
2022/09/21 07:28:39;;;;;;;;;20.50;20.50;;;;;;;;5088417;27;45389;-75
2022/09/21 07:31:08;;;;;;;;;29.25;27.00;;;;;;;;5098225;27;45734;-73
2022/09/21 07:33:34;;;;;;;;;23.75;21.50;;;;;;;;5087475;28;44738;-74
2022/09/21 07:36:00;;;;;;;;;23.75;22.00;;;;;;;;5071525;28;45210;-74
2022/09/21 07:38:26;;;;;;;;;23.00;23.00;;;;;;;;5091203;28;45963;-76
2022/09/21 07:40:51;;;;;;;;;22.00;22.00;;;;;;;;5089499;28;45216;-75
2022/09/21 07:43:17;;;;;;;;;27.75;27.75;;;;;;;;5090004;28;45293;-74
2022/09/21 07:45:42;;;;;;;;;21.75;19.75;;;;;;;;5089166;28;44894;-74
2022/09/21 07:48:07;;;;;;;;;31.50;29.50;;;;;;;;5089924;28;45826;-75
2022/09/21 07:50:33;;;;;;;;;18.00;18.00;;;;;;;;5087887;28;45130;-74
2022/09/21 07:52:59;;;;;;;;;23.25;22.75;;;;;;;;5088260;28;45282;-74
2022/09/21 07:55:24;;;;;;;;;24.25;23.25;;;;;;;;5091968;28;45373;-74
2022/09/21 08:00:34;;;;;;;;;23.75;22.00;;;;;;;;5077429;28;45312;-74
2022/09/21 08:03:00;;;;;;;;;26.75;26.75;;;;;;;;5077060;27;45292;-75
2022/09/21 08:05:25;;;;;;;;;26.75;26.25;;;;;;;;5076912;28;45252;-75
2022/09/21 08:07:53;;;;;;;;;23.75;23.25;;;;;;;;5076537;28;46746;-75
2022/09/21 08:10:18;;;;;;;;;21.75;21.75;;;;;;;;5076760;28;45275;-76
2022/09/21 08:12:44;;;;;;;;;24.25;24.25;;;;;;;;5076543;28;45301;-75
2022/09/21 08:15:10;;;;;;;;;23.75;23.75;;;;;;;;5076674;28;45249;-75
2022/09/21 08:17:37;;;;;;;;;23.00;23.00;;;;;;;;5076479;28;46072;-75
2022/09/21 08:20:02;;;;;;;;;22.50;22.00;;;;;;;;5076546;28;45244;-75
2022/09/21 08:22:28;;;;;;;;;22.75;22.75;;;;;;;;5076167;28;45216;-74
2022/09/21 08:24:54;;;;;;;;;20.25;20.25;;;;;;;;5076714;28;45349;-74
2022/09/21 08:27:20;;;;;;;;;23.25;23.25;;;;;;;;5059770;28;47915;-74
2022/09/21 08:29:45;;;;;;;;;22.25;22.25;;;;;;;;5076676;28;45280;-76
2022/09/21 08:32:10;;;;;;;;;21.00;21.00;;;;;;;;5076156;28;45369;-76
2022/09/21 08:34:35;;;;;;;;;21.75;21.75;;;;;;;;5076348;28;45540;-75
2022/09/21 08:37:00;;;;;;;;;18.75;18.75;;;;;;;;5057566;28;48092;-75
2022/09/21 08:39:26;;;;;;;;;18.50;18.50;;;;;;;;5057409;28;45361;-76
2022/09/21 08:42:00;;;;;;;;;18.75;18.75;;;;;;;;5076168;28;45240;-76
2022/09/21 08:44:28;;;;;;;;;18.75;18.50;;;;;;;;5058025;28;45554;-74
2022/09/21 08:46:59;;;;;;;;;21.25;21.00;;;;;;;;5076858;28;45876;-75
2022/09/21 08:49:26;;;;;;;;;18.75;18.00;;;;;;;;5076604;28;45431;-75
2022/09/21 08:51:55;;;;;;;;;16.00;16.00;;;;;;;;5076965;28;45440;-74
2022/09/21 08:54:39;;;;;;;;;18.75;18.75;;;;;;;;5076764;28;45320;-77
2022/09/21 08:57:08;;;;;;;;;20.25;20.25;;;;;;;;5057302;28;46836;-74
2022/09/21 08:59:34;;;;;;;;;21.00;21.00;;;;;;;;5076011;28;45214;-75
2022/09/21 09:02:13;;;;;;;;;20.25;20.25;;;;;;;;5078064;28;45367;-75
2022/09/21 09:04:48;;;;;;;;;24.50;24.00;;;;;;;;5058088;28;45324;-75
2022/09/21 09:07:20;;;;;;;;;17.25;17.25;;;;;;;;5061112;28;47298;-75
2022/09/21 09:10:04;;;;;;;;;13.75;13.75;;;;;;;;5064379;28;45408;-75
2022/09/21 09:12:41;;;;;;;;;15.75;15.75;;;;;;;;5063720;28;45368;-75
2022/09/21 09:15:42;;;;;;;;;22.00;22.00;;;;;;;;5082717;28;45495;-76
2022/09/21 09:18:36;;;;;;;;;15.50;15.50;;;;;;;;5002195;28;45376;-74
2022/09/21 09:21:23;;;;;;;;;21.50;21.00;;;;;;;;4994820;28;45422;-75
2022/09/21 09:23:55;;;;;;;;;10.25;9.75;;;;;;;;5084024;28;45293;-73
2022/09/21 09:26:23;;;;;;;;;9.50;9.50;;;;;;;;5065429;28;45257;-76
2022/09/21 09:29:05;;;;;;;;;12.75;12.75;;;;;;;;5084705;28;46610;-74
2022/09/21 09:31:32;;;;;;;;;38.75;35.00;;;;;;;;5084409;28;45232;-74
2022/09/21 09:34:00;;;;;;;;;16.00;16.00;;;;;;;;5084148;28;45223;-74
2022/09/21 09:36:32;;;;;;;;;18.00;17.50;;;;;;;;5079984;28;45540;-75
2022/09/21 09:38:59;;;;;;;;;10.75;10.75;;;;;;;;5075656;28;45384;-74
2022/09/21 09:41:39;;;;;;;;;14.00;14.00;;;;;;;;5075887;28;45379;-76
2022/09/21 09:44:10;;;;;;;;;11.75;11.75;;;;;;;;5076134;28;45330;-76
2022/09/21 09:46:38;;;;;;;;;29.00;29.00;;;;;;;;5075814;28;45550;-77
2022/09/21 09:49:19;;;;;;;;;16.75;16.75;;;;;;;;5074989;28;46207;-75
2022/09/21 09:51:45;;;;;;;;;12.75;12.75;;;;;;;;5075167;28;45431;-77
2022/09/21 09:54:13;;;;;;;;;18.50;16.25;;;;;;;;5075189;28;45414;-75
2022/09/21 09:56:38;;;;;;;;;12.50;12.00;;;;;;;;5076351;27;45347;-76
2022/09/21 09:59:06;;;;;;;;;18.00;18.00;;;;;;;;5074876;28;45517;-75
2022/09/21 10:01:35;;;;;;;;;12.25;12.25;;;;;;;;5056323;28;45427;-74
2022/09/21 10:04:03;;;;;;;;;12.75;12.50;;;;;;;;5056445;28;45420;-74
2022/09/21 10:06:32;;;;;;;;;15.00;15.00;;;;;;;;5056432;28;45360;-75
2022/09/21 10:08:57;;;;;;;;;50.75;42.50;;;;;;;;5056004;28;45430;-77
2022/09/21 10:11:32;;;;;;;;;68.00;55.33;;;;;;;;5074563;28;45189;-75
2022/09/21 10:14:06;;;;;;;;;54.75;45.00;;;;;;;;5074769;28;45743;-76
2022/09/21 10:16:31;;;;;;;;;18.75;18.75;;;;;;;;5077449;28;45346;-78
2022/09/21 10:19:00;;;;;;;;;12.00;12.00;;;;;;;;5077500;28;46109;-77
2022/09/21 10:21:31;;;;;;;;;10.00;10.00;;;;;;;;5078341;28;45441;-76
2022/09/21 10:24:01;;;;;;;;;13.75;13.75;;;;;;;;5078957;28;45220;-77
2022/09/21 10:26:34;;;;;;;;;26.75;26.50;;;;;;;;5078607;28;45257;-75
2022/09/21 10:29:01;;;;;;;;;12.25;12.25;;;;;;;;5078259;27;46167;-77
2022/09/21 10:31:28;;;;;;;;;14.00;13.75;;;;;;;;5059365;28;45903;-78
2022/09/21 10:33:53;;;;;;;;;14.75;14.75;;;;;;;;5078297;28;45413;-77
2022/09/21 10:36:25;;;;;;;;;10.00;10.00;;;;;;;;5078229;28;45548;-76
2022/09/21 10:38:50;;;;;;;;;11.00;11.00;;;;;;;;5059538;28;47717;-74
2022/09/21 10:41:16;;;;;;;;;5.75;5.75;;;;;;;;5077700;28;45435;-76
2022/09/21 10:43:43;;;;;;;;;22.25;22.25;;;;;;;;5078005;28;45360;-76
2022/09/21 10:46:09;;;;;;;;;13.00;13.00;;;;;;;;5077884;28;45597;-76
2022/09/21 10:48:34;;;;;;;;;7.00;7.00;;;;;;;;5058734;28;46911;-74
2022/09/21 10:51:00;;;;;;;;;21.50;21.50;;;;;;;;5059961;28;45290;-76
2022/09/21 10:53:29;;;;;;;;;13.75;13.50;;;;;;;;5078486;28;45380;-76
2022/09/21 10:56:01;;;;;;;;;9.25;9.25;;;;;;;;5079166;28;45710;-74
2022/09/21 10:58:26;;;;;;;;;21.00;21.00;;;;;;;;5077393;28;46192;-75
2022/09/21 11:00:52;;;;;;;;;5.00;5.00;;;;;;;;5078142;28;45267;-75
2022/09/21 11:03:32;;;;;;;;;6.75;6.75;;;;;;;;5077742;28;45249;-77
2022/09/21 11:06:20;;;;;;;;;4.00;4.00;;;;;;;;5077798;28;45475;-76
2022/09/21 11:09:01;;;;;;;;;10.25;10.25;;;;;;;;5066524;28;45513;-77
2022/09/21 11:11:30;;;;;;;;;13.25;13.25;;;;;;;;5059405;28;46315;-77
2022/09/21 11:14:02;;;;;;;;;8.25;8.25;;;;;;;;5078193;28;45336;-74
2022/09/21 11:16:27;;;;;;;;;7.50;7.50;;;;;;;;5059821;28;45379;-76
2022/09/21 11:19:04;;;;;;;;;6.25;6.25;;;;;;;;5078031;28;45408;-76
2022/09/21 11:21:39;;;;;;;;;17.50;16.75;;;;;;;;5078144;28;45437;-76
2022/09/21 11:24:16;;;;;;;;;13.00;12.50;;;;;;;;5058793;28;45424;-76
2022/09/21 11:26:45;;;;;;;;;10.50;10.50;;;;;;;;5076850;28;45253;-75
2022/09/21 11:29:17;;;;;;;;;15.25;15.25;;;;;;;;5076775;28;46552;-76
2022/09/21 11:32:01;;;;;;;;;6.00;6.00;;;;;;;;5076735;28;45265;-77
2022/09/21 11:34:32;;;;;;;;;6.00;6.00;;;;;;;;5077282;28;45271;-76
2022/09/21 11:37:27;;;;;;;;;3.75;3.75;;;;;;;;5077947;28;45476;-76
2022/09/21 11:39:52;;;;;;;;;2.75;2.75;;;;;;;;5004472;28;45664;-76
2022/09/21 11:42:32;;;;;;;;;10.00;10.00;;;;;;;;5077059;28;45353;-76
2022/09/21 11:44:59;;;;;;;;;10.75;10.75;;;;;;;;5058960;28;45297;-75
2022/09/21 11:47:47;;;;;;;;;9.00;9.00;;;;;;;;5077455;28;45284;-76
2022/09/21 11:50:28;;;;;;;;;8.75;8.75;;;;;;;;5076842;28;45412;-75
2022/09/21 11:53:11;;;;;;;;;9.00;9.00;;;;;;;;5077881;28;45222;-76
2022/09/21 11:55:59;;;;;;;;;6.00;6.00;;;;;;;;5077106;28;45380;-75
2022/09/21 11:58:40;;;;;;;;;7.00;7.00;;;;;;;;5078105;27;45656;-77
2022/09/21 12:01:17;;;;;;;;;5.50;5.50;;;;;;;;5076785;28;45507;-75
2022/09/21 12:03:54;;;;;;;;;7.00;7.00;;;;;;;;5076966;28;45326;-75
2022/09/21 12:06:32;;;;;;;;;7.00;7.00;;;;;;;;5085700;28;45204;-76
2022/09/21 12:09:02;;;;;;;;;8.25;8.25;;;;;;;;5078844;28;45470;-74
2022/09/21 12:11:36;;;;;;;;;7.75;7.75;;;;;;;;5077180;28;46499;-76
2022/09/21 12:14:02;;;;;;;;;7.75;7.75;;;;;;;;5058512;28;45350;-76
2022/09/21 12:16:35;;;;;;;;;3.75;3.75;;;;;;;;5076989;28;45393;-77
2022/09/21 12:19:06;;;;;;;;;5.00;5.00;;;;;;;;5076934;28;45461;-74
2022/09/21 12:21:41;;;;;;;;;6.25;6.25;;;;;;;;5076675;28;45409;-75
2022/09/21 12:24:12;;;;;;;;;4.50;4.50;;;;;;;;5059447;28;45543;-75
2022/09/21 12:26:46;;;;;;;;;9.00;9.00;;;;;;;;5076762;28;45324;-75
2022/09/21 12:29:17;;;;;;;;;6.00;6.00;;;;;;;;5077335;28;45270;-76
2022/09/21 12:31:46;;;;;;;;;3.25;3.25;;;;;;;;5077006;28;46261;-76
2022/09/21 12:34:14;;;;;;;;;31.00;29.00;;;;;;;;5058114;28;45246;-75
2022/09/21 12:36:59;;;;;;;;;31.00;30.00;;;;;;;;5077086;27;45481;-76
2022/09/21 12:39:28;;;;;;;;;5.25;5.00;;;;;;;;5075752;28;45406;-76
2022/09/21 12:42:00;;;;;;;;;3.50;3.50;;;;;;;;5077096;28;46473;-75
2022/09/21 12:44:52;;;;;;;;;17.00;17.00;;;;;;;;5077913;28;45343;-75
2022/09/21 12:47:39;;;;;;;;;2.00;2.00;;;;;;;;5077830;28;45444;-76
2022/09/21 12:50:06;;;;;;;;;3.25;3.25;;;;;;;;5058473;28;45286;-75
2022/09/21 12:52:33;;;;;;;;;3.00;3.00;;;;;;;;5075886;28;45328;-74
2022/09/21 12:55:08;;;;;;;;;4.75;4.75;;;;;;;;5076213;28;45257;-76
2022/09/21 12:57:47;;;;;;;;;3.50;3.50;;;;;;;;5076311;28;45430;-75
2022/09/21 13:00:14;;;;;;;;;2.75;2.75;;;;;;;;5057506;28;45380;-75
2022/09/21 13:02:52;;;;;;;;;5.75;5.75;;;;;;;;5076350;28;46347;-75
2022/09/21 13:05:20;;;;;;;;;2.50;2.50;;;;;;;;5075396;28;45326;-75
2022/09/21 13:08:05;;;;;;;;;10.00;10.00;;;;;;;;5076550;28;45321;-76
2022/09/21 13:10:39;;;;;;;;;2.00;2.00;;;;;;;;5059910;28;45486;-75
2022/09/21 13:13:07;;;;;;;;;2.50;2.50;;;;;;;;5057899;28;48137;-76
2022/09/21 13:15:41;;;;;;;;;2.00;2.00;;;;;;;;5075922;28;45375;-75
2022/09/21 13:18:17;;;;;;;;;6.50;6.50;;;;;;;;5081281;28;45237;-78
2022/09/21 13:20:43;;;;;;;;;8.00;8.00;;;;;;;;5062068;28;45349;-75
2022/09/21 13:23:21;;;;;;;;;3.00;3.00;;;;;;;;5040669;28;46601;-76
2022/09/21 13:25:48;;;;;;;;;4.25;4.25;;;;;;;;5075433;28;45345;-75
2022/09/21 13:28:14;;;;;;;;;3.00;3.00;;;;;;;;5075821;28;45295;-74
2022/09/21 13:30:39;;;;;;;;;1.00;1.00;;;;;;;;5075854;28;45268;-75
2022/09/21 13:33:22;;;;;;;;;4.00;4.00;;;;;;;;5075276;28;45639;-76
2022/09/21 13:36:00;;;;;;;;;3.50;3.50;;;;;;;;5075600;28;45309;-76
2022/09/21 13:38:41;;;;;;;;;1.75;1.75;;;;;;;;5075504;28;45219;-75
2022/09/21 13:41:18;;;;;;;;;2.00;2.00;;;;;;;;5075356;28;45489;-76
2022/09/21 13:43:49;;;;;;;;;2.00;2.00;;;;;;;;5075392;28;45502;-74
2022/09/21 13:46:34;;;;;;;;;7.00;6.00;;;;;;;;5056832;28;45358;-75
2022/09/21 13:49:20;;;;;;;;;2.25;2.25;;;;;;;;5046741;28;45198;-75
2022/09/21 13:52:01;;;;;;;;;8.25;8.25;;;;;;;;5063843;28;45463;-75
2022/09/21 13:54:32;;;;;;;;;4.25;4.25;;;;;;;;5079066;28;45305;-75
2022/09/21 13:57:02;;;;;;;;;3.00;3.00;;;;;;;;5079329;28;45441;-75
2022/09/21 13:59:28;;;;;;;;;3.25;3.25;;;;;;;;5079369;28;45341;-78
2022/09/21 14:01:53;;;;;;;;;7.00;6.25;;;;;;;;5080851;28;45407;-76
2022/09/21 14:04:19;;;;;;;;;2.00;2.00;;;;;;;;5061322;28;47669;-77
2022/09/21 14:06:47;;;;;;;;;3.25;3.25;;;;;;;;5079568;28;45246;-74
2022/09/21 14:09:24;;;;;;;;;6.75;5.75;;;;;;;;5079286;28;45404;-76
2022/09/21 14:11:57;;;;;;;;;4.25;4.25;;;;;;;;5079971;28;45510;-76
2022/09/21 14:14:40;;;;;;;;;7.25;6.50;;;;;;;;5079202;28;46463;-74
2022/09/21 14:17:24;;;;;;;;;12.00;12.00;;;;;;;;5078810;28;45486;-75
2022/09/21 14:19:52;;;;;;;;;3.00;3.00;;;;;;;;5057975;28;45376;-76
2022/09/21 14:22:19;;;;;;;;;9.50;9.50;;;;;;;;5058382;28;45479;-77
2022/09/21 14:24:45;;;;;;;;;8.00;8.00;;;;;;;;5059136;28;45743;-78
2022/09/21 14:27:10;;;;;;;;;27.00;20.25;;;;;;;;5040956;28;45431;-76
2022/09/21 14:29:44;;;;;;;;;5.25;5.25;;;;;;;;5062289;28;45304;-76
2022/09/21 14:32:15;;;;;;;;;12.75;10.00;;;;;;;;5072409;28;45517;-76
2022/09/21 14:34:42;;;;;;;;;7.00;7.00;;;;;;;;5045390;28;47138;-77
2022/09/21 14:37:16;;;;;;;;;7.75;7.75;;;;;;;;5062594;28;45438;-75
2022/09/21 14:39:43;;;;;;;;;4.00;4.00;;;;;;;;5042942;28;45507;-74
2022/09/21 14:42:18;;;;;;;;;2.00;2.00;;;;;;;;5063954;28;45526;-74